createdAt,value
2023-01-17T00:00:44.475Z,97172.59
2023-01-17T00:06:04.171Z,97181.63
2023-01-17T00:11:05.401Z,97189.34
2023-01-17T00:16:06.615Z,97199.69
2023-01-17T00:21:26.710Z,97197.81
2023-01-17T00:26:27.874Z,97204.28
2023-01-17T00:31:29.017Z,97200.94
2023-01-17T00:36:30.207Z,97211.16
2023-01-17T00:41:31.320Z,97212.69
2023-01-17T00:46:51.094Z,97224.69
2023-01-17T00:52:10.840Z,97231.06
2023-01-17T00:57:30.601Z,97249.28
2023-01-17T01:02:50.302Z,97253.38
2023-01-17T01:08:10.243Z,97263.25
2023-01-17T01:13:30.114Z,97280.34
2023-01-17T01:18:49.866Z,97285.06
2023-01-17T01:24:09.652Z,97302.63
2023-01-17T01:29:29.485Z,97307.28
2023-01-17T01:34:30.732Z,97312.91
2023-01-17T01:39:31.878Z,97325.22
2023-01-17T01:44:33.154Z,97326.13
2023-01-17T01:49:34.309Z,97351.88
2023-01-17T01:54:35.449Z,97348.38
2023-01-17T01:59:36.636Z,97359.47
2023-01-17T02:04:37.907Z,97368.78
2023-01-17T02:09:39.112Z,97375.31
2023-01-17T02:14:40.315Z,97383.41
2023-01-17T02:19:41.467Z,97398.66
2023-01-17T02:24:42.608Z,97397.44
2023-01-17T02:29:43.764Z,97414.69
2023-01-17T02:34:44.900Z,97423.50
2023-01-17T02:39:46.112Z,97434.94
2023-01-17T02:44:47.363Z,97441.63
2023-01-17T02:49:48.536Z,97444.22
2023-01-17T02:54:49.752Z,97456.56
2023-01-17T02:59:50.885Z,97454.59
2023-01-17T03:04:52.090Z,97452.78
2023-01-17T03:09:53.569Z,97457.03
2023-01-17T03:14:54.711Z,97456.72
2023-01-17T03:19:55.932Z,97468.28
2023-01-17T03:24:57.063Z,97473.31
2023-01-17T03:29:58.312Z,97477.09
2023-01-17T03:34:59.528Z,97481.97
2023-01-17T03:40:00.830Z,97480.75
2023-01-17T03:45:02.052Z,97485.78
2023-01-17T03:50:03.230Z,97501.47
2023-01-17T03:55:04.460Z,97505.44
2023-01-17T04:00:05.635Z,97506.38
2023-01-17T04:05:06.809Z,97510.16
2023-01-17T04:10:08.006Z,97471.44
2023-01-17T04:15:09.211Z,97517.94
2023-01-17T04:20:10.403Z,97522.66
2023-01-17T04:25:11.625Z,97519.00
2023-01-17T04:30:12.811Z,97524.19
2023-01-17T04:35:14.014Z,97516.56
2023-01-17T04:40:15.272Z,97533.59
2023-01-17T04:45:16.714Z,97525.38
2023-01-17T04:50:18.145Z,97527.53
2023-01-17T04:55:19.350Z,97525.69
2023-01-17T05:00:22.699Z,97531.16
2023-01-17T05:05:25.149Z,97539.38
2023-01-17T05:10:26.328Z,97543.19
2023-01-17T05:15:27.641Z,97546.97
2023-01-17T05:20:28.918Z,97541.75
2023-01-17T05:25:30.084Z,97553.88
2023-01-17T05:30:31.223Z,97550.97
2023-01-17T05:35:35.510Z,97553.88
2023-01-17T05:40:36.753Z,97553.28
2023-01-17T05:45:38.024Z,97566.66
2023-01-17T05:50:39.225Z,97560.91
2023-01-17T05:55:40.392Z,97562.59
2023-01-17T06:00:41.664Z,97562.78
2023-01-17T06:05:43.182Z,97571.78
2023-01-17T06:10:44.395Z,97578.00
2023-01-17T06:15:45.631Z,97574.66
2023-01-17T06:20:46.882Z,97581.94
2023-01-17T06:25:48.055Z,97584.38
2023-01-17T06:30:49.293Z,97591.78
2023-01-17T06:35:50.469Z,97604.56
2023-01-17T06:40:51.709Z,97604.09
2023-01-17T06:45:52.890Z,97597.84
2023-01-17T06:50:54.019Z,97605.63
2023-01-17T06:55:55.196Z,97611.69
2023-01-17T07:00:56.472Z,97611.47
2023-01-17T07:05:57.732Z,97617.03
2023-01-17T07:10:58.949Z,97620.13
2023-01-17T07:16:00.248Z,97624.56
2023-01-17T07:21:01.468Z,97630.22
2023-01-17T07:26:02.693Z,97624.28
2023-01-17T07:31:03.854Z,97629.56
2023-01-17T07:36:05.127Z,97635.03
2023-01-17T07:41:06.287Z,97637.31
2023-01-17T07:46:07.991Z,97636.16
2023-01-17T07:51:09.175Z,97634.81
2023-01-17T07:56:10.405Z,97623.84
2023-01-17T08:01:11.744Z,97627.69
2023-01-17T08:06:13.000Z,97626.44
2023-01-17T08:11:14.164Z,97623.84
2023-01-17T08:16:15.493Z,97623.25
2023-01-17T08:21:16.795Z,97625.72
2023-01-17T08:26:22.288Z,97628.78
2023-01-17T08:31:23.638Z,97626.19
2023-01-17T08:36:28.552Z,97636.38
2023-01-17T08:41:29.868Z,97636.41
2023-01-17T08:46:32.819Z,97631.75
2023-01-17T08:51:34.837Z,97637.09
2023-01-17T08:56:35.981Z,97632.25
2023-01-17T09:01:40.737Z,97633.22
2023-01-17T09:06:42.168Z,97631.41
2023-01-17T09:11:43.347Z,97644.69
2023-01-17T09:16:44.569Z,97649.13
2023-01-17T09:21:45.781Z,97650.06
2023-01-17T09:26:46.996Z,97639.09
2023-01-17T09:31:48.289Z,97648.41
2023-01-17T09:36:49.498Z,97645.56
2023-01-17T09:41:50.681Z,97642.59
2023-01-17T09:46:51.863Z,97642.44
2023-01-17T09:51:53.035Z,97655.69
2023-01-17T09:56:54.512Z,97667.28
2023-01-17T10:01:55.867Z,97668.38
2023-01-17T10:06:57.142Z,97666.84
2023-01-17T10:11:58.610Z,97666.50
2023-01-17T10:16:59.852Z,97671.63
2023-01-17T10:22:02.191Z,97659.38
2023-01-17T10:27:03.376Z,97657.38
2023-01-17T10:32:04.588Z,97654.81
2023-01-17T10:37:05.746Z,97652.28
2023-01-17T10:42:06.946Z,97643.72
2023-01-17T10:47:08.160Z,97654.78
2023-01-17T10:52:09.378Z,97651.44
2023-01-17T10:57:10.560Z,97635.47
2023-01-17T11:02:11.764Z,97640.34
2023-01-17T11:07:13.194Z,97643.16
2023-01-17T11:12:14.435Z,97642.19
2023-01-17T11:17:15.982Z,97637.06
2023-01-17T11:22:17.117Z,97633.28
2023-01-17T11:27:18.307Z,97622.50
2023-01-17T11:32:19.431Z,97618.13
2023-01-17T11:37:20.605Z,97608.03
2023-01-17T11:42:21.927Z,97611.56
2023-01-17T11:47:23.076Z,97592.91
2023-01-17T11:52:24.423Z,97599.69
2023-01-17T11:57:25.743Z,97597.88
2023-01-17T12:02:32.006Z,97595.97
2023-01-17T12:07:33.259Z,97595.97
2023-01-17T12:12:53.293Z,97586.88
2023-01-17T12:17:54.445Z,97583.09
2023-01-17T12:22:56.379Z,97581.25
2023-01-17T12:27:57.866Z,97572.22
2023-01-17T12:32:59.061Z,97572.88
2023-01-17T12:38:04.904Z,97574.72
2023-01-17T12:43:06.519Z,97563.63
2023-01-17T12:48:07.885Z,97559.50
2023-01-17T12:53:09.141Z,97553.56
2023-01-17T12:58:10.320Z,97556.78
2023-01-17T13:03:11.525Z,97548.72
2023-01-17T13:08:12.831Z,97547.81
2023-01-17T13:13:14.098Z,97545.31
2023-01-17T13:18:15.545Z,97541.88
2023-01-17T13:23:16.808Z,97552.34
2023-01-17T13:28:18.072Z,97554.97
2023-01-17T13:33:19.268Z,97538.44
2023-01-17T13:38:20.473Z,97551.56
2023-01-17T13:43:21.903Z,97570.25
2023-01-17T13:48:23.253Z,97574.34
2023-01-17T13:53:24.412Z,97574.91
2023-01-17T13:58:25.624Z,97578.00
2023-01-17T14:03:26.830Z,97575.25
2023-01-17T14:08:28.098Z,97577.09
2023-01-17T14:13:29.326Z,97581.41
2023-01-17T14:18:30.501Z,97578.31
2023-01-17T14:23:31.695Z,97578.09
2023-01-17T14:28:32.913Z,97580.00
2023-01-17T14:33:34.082Z,97581.69
2023-01-17T14:38:35.826Z,97582.84
2023-01-17T14:43:37.039Z,97577.34
2023-01-17T14:48:38.172Z,97576.47
2023-01-17T14:53:39.442Z,97576.66
2023-01-17T14:58:41.335Z,97580.03
2023-01-17T15:03:42.491Z,97578.66
2023-01-17T15:08:43.671Z,97582.47
2023-01-17T15:13:45.370Z,97580.81
2023-01-17T15:18:46.635Z,97585.53
2023-01-17T15:23:47.770Z,97579.16
2023-01-17T15:28:49.032Z,97579.63
2023-01-17T15:33:50.252Z,97589.50
2023-01-17T15:38:51.527Z,97587.38
2023-01-17T15:43:57.439Z,97588.72
2023-01-17T15:48:58.628Z,97571.81
2023-01-17T15:53:59.812Z,97576.03
2023-01-17T15:59:00.941Z,97583.66
2023-01-17T16:04:02.141Z,97585.41
2023-01-17T16:09:04.684Z,97587.47
2023-01-17T16:14:07.857Z,97597.47
2023-01-17T16:19:09.078Z,97601.56
2023-01-17T16:24:10.460Z,97606.81
2023-01-17T16:29:11.707Z,97616.81
2023-01-17T16:34:12.969Z,97620.00
2023-01-17T16:39:14.876Z,97628.81
2023-01-17T16:44:16.746Z,97645.63
2023-01-17T16:49:18.602Z,97639.34
2023-01-17T16:54:19.856Z,97642.63
2023-01-17T16:59:21.205Z,97648.03
2023-01-17T17:04:22.504Z,97652.38
2023-01-17T17:09:23.722Z,97655.75
2023-01-17T17:14:24.883Z,97660.00
2023-01-17T17:19:29.568Z,97662.09
2023-01-17T17:24:30.704Z,97671.47
2023-01-17T17:29:31.904Z,97672.03
2023-01-17T17:34:34.847Z,97674.72
2023-01-17T17:39:35.973Z,97683.56
2023-01-17T17:44:37.164Z,97687.94
2023-01-17T17:49:38.302Z,97686.03
2023-01-17T17:54:39.484Z,97684.13
2023-01-17T17:59:40.636Z,97695.41
2023-01-17T18:04:41.802Z,97691.56
2023-01-17T18:09:43.064Z,97692.34
2023-01-17T18:14:44.268Z,97702.88
2023-01-17T18:19:46.134Z,97710.50
2023-01-17T18:24:47.372Z,97711.94
2023-01-17T18:29:49.302Z,97713.75
2023-01-17T18:34:51.455Z,97721.41
2023-01-17T18:39:52.791Z,97731.53
2023-01-17T18:44:54.024Z,97735.41
2023-01-17T18:49:55.239Z,97735.41
2023-01-17T18:54:56.412Z,97732.81
2023-01-17T18:59:57.703Z,97735.00
2023-01-17T19:04:58.878Z,97738.69
2023-01-17T19:10:00.037Z,97747.06
2023-01-17T19:15:01.172Z,97744.91
2023-01-17T19:20:02.302Z,97758.72
2023-01-17T19:25:03.528Z,97755.59
2023-01-17T19:30:04.741Z,97761.72
2023-01-17T19:35:06.099Z,97769.16
2023-01-17T19:40:08.283Z,97771.63
2023-01-17T19:45:09.702Z,97771.53
2023-01-17T19:50:12.118Z,97779.97
2023-01-17T19:55:13.297Z,97777.34
2023-01-17T20:00:14.622Z,97789.19
2023-01-17T20:05:15.807Z,97793.56
2023-01-17T20:10:17.546Z,97803.47
2023-01-17T20:15:18.699Z,97806.94
2023-01-17T20:20:19.977Z,97807.28
2023-01-17T20:25:21.182Z,97822.53
2023-01-17T20:30:24.442Z,97823.91
2023-01-17T20:35:25.702Z,97830.41
2023-01-17T20:40:26.951Z,97828.84
2023-01-17T20:45:28.741Z,97827.53
2023-01-17T20:50:29.974Z,97838.59
2023-01-17T20:55:31.208Z,97841.47
2023-01-17T21:00:32.416Z,97839.31
2023-01-17T21:05:33.569Z,97841.63
2023-01-17T21:10:34.736Z,97848.38
2023-01-17T21:15:35.860Z,97861.19
2023-01-17T21:20:37.095Z,97855.59
2023-01-17T21:25:38.401Z,97854.28
2023-01-17T21:30:39.599Z,97850.56
2023-01-17T21:35:40.791Z,97860.22
2023-01-17T21:40:42.277Z,97856.41
2023-01-17T21:45:43.497Z,97865.56
2023-01-17T21:50:45.265Z,97866.31
2023-01-17T21:56:05.292Z,97876.19
2023-01-17T22:01:15.845Z,97880.66
2023-01-17T22:06:17.186Z,97880.47
2023-01-17T22:11:18.375Z,97885.44
2023-01-17T22:16:19.590Z,97883.34
2023-01-17T22:21:20.785Z,97890.88
2023-01-17T22:26:21.937Z,97890.19
2023-01-17T22:31:23.316Z,97896.59
2023-01-17T22:36:24.574Z,97902.84
2023-01-17T22:41:27.604Z,97907.22
2023-01-17T22:46:28.771Z,97904.94
2023-01-17T22:51:30.021Z,97907.25
2023-01-17T22:56:31.197Z,97920.91
2023-01-17T23:01:32.739Z,97911.69
2023-01-17T23:06:33.934Z,97910.97
2023-01-17T23:11:44.877Z,97910.97
2023-01-17T23:17:04.917Z,97920.03
2023-01-17T23:22:21.067Z,97912.25
2023-01-17T23:27:41.188Z,97913.53
2023-01-17T23:32:42.323Z,97914.81
2023-01-17T23:38:02.019Z,97907.13
2023-01-17T23:43:21.675Z,97901.25
2023-01-17T23:48:24.624Z,97895.34
2023-01-17T23:53:26.071Z,97898.97
2023-01-17T23:58:27.208Z,97896.66
